Time;durP1;ratioP1;P1;durP2;ratioP2;P2;SDS_P1;SDS_P2;PMS_P1;PMS_P2;Temp;Humidity;BMP_temperature;BMP_pressure;BME280_temperature;BME280_humidity;BME280_pressure;Samples;Min_cycle;Max_cycle;Signal;HPM_P1;HPM_P2
2023/02/02 00:01:32;;;;;;;;;;;;;;;25.89;39.31;95097.03;5013402;28;7050;-60
2023/02/02 00:03:58;;;;;;;;;;;;;;;25.90;39.62;95098.50;5014188;28;9528;-60
2023/02/02 00:06:32;;;;;;;;;;;;;;;25.90;39.25;95101.28;5014356;28;9060;-60
2023/02/02 00:09:31;;;;;;;;;;;;;;;25.91;39.65;95113.81;5026454;28;7373;-60
2023/02/02 00:12:06;;;;;;;;;;;;;;;25.91;39.17;95119.31;5000557;28;9079;-60
2023/02/02 00:14:42;;;;;;;;;;;;;;;25.91;39.57;95121.31;4996618;28;9124;-60
2023/02/02 00:17:16;;;;;;;;;;;;;;;25.91;39.46;95126.84;5003867;28;7278;-60
2023/02/02 00:19:45;;;;;;;;;;;;;;;25.91;38.58;95126.84;4985342;28;9663;-60
2023/02/02 00:22:11;;;;;;;;;;;;;;;25.88;39.34;95123.06;5002165;28;7009;-60
2023/02/02 00:24:37;;;;;;;;;;;;;;;25.90;39.21;95123.31;4982799;28;7093;-60
2023/02/02 00:27:03;;;;;;;;;;;;;;;25.89;39.26;95123.81;4999737;28;7261;-60
2023/02/02 00:29:38;;;;;;;;;;;;;;;25.89;39.18;95124.59;4999796;28;7262;-60
2023/02/02 00:32:19;;;;;;;;;;;;;;;25.90;39.10;95139.13;5003351;28;8886;-60
2023/02/02 00:35:07;;;;;;;;;;;;;;;25.89;39.58;95126.56;4985445;28;9457;-60
2023/02/02 00:37:49;;;;;;;;;;;;;;;25.89;39.19;95127.34;4987884;28;6869;-55
2023/02/02 00:40:50;;;;;;;;;;;;;;;25.89;39.65;95121.81;4991752;28;7365;-55
2023/02/02 00:43:16;;;;;;;;;;;;;;;25.88;39.01;95117.56;4977451;28;8946;-55
2023/02/02 00:45:42;;;;;;;;;;;;;;;25.88;38.63;95117.56;4978461;28;8989;-55
2023/02/02 00:48:09;;;;;;;;;;;;;;;25.85;38.92;95115.81;4999113;28;7016;-55
2023/02/02 00:50:46;;;;;;;;;;;;;;;25.88;38.66;95114.06;5007130;28;7039;-55
2023/02/02 00:53:12;;;;;;;;;;;;;;;25.85;39.33;95104.78;5009964;28;7026;-55
2023/02/02 00:55:46;;;;;;;;;;;;;;;25.87;38.90;95104.28;5007413;28;7219;-55
2023/02/02 00:58:13;;;;;;;;;;;;;;;25.86;38.43;95100.75;5003438;28;9063;-55
2023/02/02 01:01:17;;;;;;;;;;;;;;;25.86;39.52;95103.50;5006482;28;9106;-55
2023/02/02 01:03:43;;;;;;;;;;;;;;;25.87;38.53;95094.00;4999594;28;7156;-55
2023/02/02 01:06:11;;;;;;;;;;;;;;;25.86;38.78;95089.00;5006329;28;7489;-55
2023/02/02 01:08:52;;;;;;;;;;;;;;;25.86;38.76;95100.03;4996176;28;9043;-55
2023/02/02 01:11:20;;;;;;;;;;;;;;;25.87;39.19;95102.28;4995099;28;8839;-55
2023/02/02 01:13:46;;;;;;;;;;;;;;;25.88;39.08;95112.03;5014608;28;7843;-55
2023/02/02 01:16:32;;;;;;;;;;;;;;;25.88;38.85;95109.28;4999691;28;8815;-55
2023/02/02 01:19:19;;;;;;;;;;;;;;;25.86;38.45;95111.78;5003430;28;7163;-55
2023/02/02 01:21:47;;;;;;;;;;;;;;;25.86;38.61;95122.06;4999442;28;9207;-55
2023/02/02 01:24:15;;;;;;;;;;;;;;;25.85;38.49;95132.34;4998220;28;9361;-55
2023/02/02 01:26:43;;;;;;;;;;;;;;;25.83;38.49;95123.81;5012766;28;9380;-55
2023/02/02 01:29:14;;;;;;;;;;;;;;;25.83;38.83;95125.81;5014519;28;7240;-55
2023/02/02 01:31:41;;;;;;;;;;;;;;;25.84;38.48;95141.84;4991395;28;7034;-55
2023/02/02 01:34:11;;;;;;;;;;;;;;;25.82;39.41;95144.34;4997697;28;9198;-55
2023/02/02 01:36:39;;;;;;;;;;;;;;;25.83;38.83;95140.34;4998163;28;9375;-55
2023/02/02 01:39:07;;;;;;;;;;;;;;;25.85;39.34;95145.34;4996570;28;9195;-64
2023/02/02 01:41:35;;;;;;;;;;;;;;;25.85;38.61;95140.59;5000638;28;7808;-65
2023/02/02 01:44:05;;;;;;;;;;;;;;;25.85;38.84;95148.13;5002956;28;7117;-64
2023/02/02 01:46:34;;;;;;;;;;;;;;;25.86;39.39;95146.88;5006784;28;7251;-64
2023/02/02 01:49:22;;;;;;;;;;;;;;;25.85;38.58;95148.88;4997032;28;9444;-64
2023/02/02 01:51:55;;;;;;;;;;;;;;;25.82;39.21;95146.34;5004799;28;7030;-64
2023/02/02 01:54:34;;;;;;;;;;;;;;;25.84;39.40;95150.09;5002195;28;7020;-65
2023/02/02 01:57:24;;;;;;;;;;;;;;;25.83;38.70;95145.84;5005135;28;7035;-65
2023/02/02 01:59:53;;;;;;;;;;;;;;;25.82;38.51;95151.84;4995368;28;7071;-64
2023/02/02 02:02:20;;;;;;;;;;;;;;;25.80;38.52;95140.56;4999112;28;7245;-65
2023/02/02 02:05:04;;;;;;;;;;;;;;;25.82;38.82;95138.81;5006906;28;7214;-65
2023/02/02 02:08:00;;;;;;;;;;;;;;;25.83;38.70;95136.84;5003149;28;9587;-65
2023/02/02 02:10:26;;;;;;;;;;;;;;;25.83;39.01;95136.84;5002490;28;7059;-65
2023/02/02 02:13:07;;;;;;;;;;;;;;;25.83;38.50;95140.34;5001932;28;9185;-65
2023/02/02 02:16:17;;;;;;;;;;;;;;;25.83;38.45;95134.06;5018598;28;7335;-65
2023/02/02 02:19:21;;;;;;;;;;;;;;;25.82;38.39;95141.59;5009640;28;7272;-65
2023/02/02 02:28:34;;;;;;;;;;;;;;;25.85;39.31;95162.66;4995720;28;9156;-65
2023/02/02 02:31:51;;;;;;;;;;;;;;;25.83;38.86;95162.41;5007736;28;9406;-64
2023/02/02 02:34:49;;;;;;;;;;;;;;;25.82;38.38;95160.88;4995228;28;7533;-65
2023/02/02 02:38:09;;;;;;;;;;;;;;;25.80;39.31;95165.38;4965403;28;7009;-55
2023/02/02 02:41:03;;;;;;;;;;;;;;;25.79;38.67;95159.13;4967310;28;9476;-55
2023/02/02 02:43:55;;;;;;;;;;;;;;;25.79;39.38;95150.84;4986986;28;8996;-55
2023/02/02 02:46:23;;;;;;;;;;;;;;;25.80;38.48;95146.06;4971353;28;8190;-55
2023/02/02 02:49:20;;;;;;;;;;;;;;;25.80;38.77;95151.59;4987490;28;9351;-55
2023/02/02 02:51:56;;;;;;;;;;;;;;;25.80;38.75;95146.84;4977840;28;8047;-55
2023/02/02 02:54:48;;;;;;;;;;;;;;;25.81;38.90;95150.34;4988462;28;7519;-56
2023/02/02 02:58:09;;;;;;;;;;;;;;;25.80;39.39;95151.59;4959315;28;7027;-56
2023/02/02 03:00:58;;;;;;;;;;;;;;;25.80;39.37;95146.06;4988166;28;7257;-56
2023/02/02 03:04:11;;;;;;;;;;;;;;;25.79;39.39;95145.34;4984914;28;7239;-56
2023/02/02 03:07:22;;;;;;;;;;;;;;;25.80;38.40;95138.56;4988374;28;7185;-55
2023/02/02 03:10:06;;;;;;;;;;;;;;;25.81;38.52;95145.59;4930964;29;7519;-55
2023/02/02 03:12:33;;;;;;;;;;;;;;;25.82;38.82;95149.09;4915560;29;9200;-56
2023/02/02 03:15:07;;;;;;;;;;;;;;;25.81;38.65;95151.13;4909544;29;8807;-56
2023/02/02 03:18:02;;;;;;;;;;;;;;;25.80;38.71;95146.06;4929281;29;7030;-57
2023/02/02 03:20:28;;;;;;;;;;;;;;;25.79;38.87;95145.34;4856201;29;7211;-57
2023/02/02 03:22:54;;;;;;;;;;;;;;;25.78;38.94;95137.56;4855446;29;7594;-57
2023/02/02 03:25:20;;;;;;;;;;;;;;;25.79;38.92;95134.31;4855323;29;9017;-57
2023/02/02 03:27:46;;;;;;;;;;;;;;;25.76;39.05;95140.81;4858446;29;8936;-57
2023/02/02 03:30:13;;;;;;;;;;;;;;;25.77;38.85;95139.56;4855289;29;7159;-57
2023/02/02 03:33:17;;;;;;;;;;;;;;;25.77;38.99;95147.09;4853691;29;7043;-57
2023/02/02 03:35:44;;;;;;;;;;;;;;;25.78;39.28;95143.81;4852816;29;7303;-57
2023/02/02 03:38:13;;;;;;;;;;;;;;;25.77;39.13;95138.81;4854945;29;7397;-65
2023/02/02 03:40:40;;;;;;;;;;;;;;;25.78;38.72;95143.06;4855105;29;9038;-65
2023/02/02 03:43:19;;;;;;;;;;;;;;;25.77;38.44;95136.81;4852090;29;7856;-65
2023/02/02 03:45:46;;;;;;;;;;;;;;;25.76;39.35;95131.78;4865270;29;9332;-65
2023/02/02 03:48:13;;;;;;;;;;;;;;;25.76;38.49;95135.28;4928128;29;7048;-65
2023/02/02 03:50:42;;;;;;;;;;;;;;;25.74;38.77;95135.03;4926604;29;7007;-64
2023/02/02 03:53:08;;;;;;;;;;;;;;;25.76;38.61;95140.81;4926287;29;8759;-64
2023/02/02 03:55:37;;;;;;;;;;;;;;;25.76;38.68;95137.28;4929245;29;7289;-64
2023/02/02 03:58:03;;;;;;;;;;;;;;;25.76;38.22;95146.31;5001506;28;7034;-64
2023/02/02 04:00:33;;;;;;;;;;;;;;;25.76;38.74;95151.06;5005893;28;9137;-64
2023/02/02 04:03:06;;;;;;;;;;;;;;;25.76;38.65;95151.06;4993862;28;7508;-64
2023/02/02 04:05:34;;;;;;;;;;;;;;;25.78;38.40;95157.59;5000972;28;9032;-64
2023/02/02 04:08:01;;;;;;;;;;;;;;;25.76;38.46;95157.34;5014450;28;8228;-64
2023/02/02 04:10:41;;;;;;;;;;;;;;;25.76;39.18;95156.59;5005041;28;8081;-65
2023/02/02 04:13:07;;;;;;;;;;;;;;;25.80;38.73;95163.38;5000782;28;9351;-65
2023/02/02 04:15:40;;;;;;;;;;;;;;;25.79;38.95;95156.38;5007144;28;6951;-65
2023/02/02 04:18:06;;;;;;;;;;;;;;;25.80;38.57;95168.88;5004877;28;7275;-57
2023/02/02 04:20:32;;;;;;;;;;;;;;;25.80;38.24;95165.38;5008011;28;7462;-58
2023/02/02 04:23:00;;;;;;;;;;;;;;;25.79;39.21;95159.13;5012249;28;7247;-57
2023/02/02 04:25:26;;;;;;;;;;;;;;;25.80;38.92;95166.13;5013149;28;7278;-57
2023/02/02 04:27:52;;;;;;;;;;;;;;;25.78;38.18;95163.13;5001071;28;8832;-57
2023/02/02 04:30:19;;;;;;;;;;;;;;;25.79;38.66;95164.63;5001151;28;9038;-57
2023/02/02 04:33:00;;;;;;;;;;;;;;;25.80;38.65;95173.63;5004858;28;9028;-57
2023/02/02 04:35:27;;;;;;;;;;;;;;;25.80;39.28;95177.16;5004634;28;8923;-57
2023/02/02 04:38:04;;;;;;;;;;;;;;;25.80;38.71;95179.16;5019142;28;7444;-57
2023/02/02 04:40:47;;;;;;;;;;;;;;;25.80;39.24;95174.38;5006501;28;9066;-57
2023/02/02 04:43:32;;;;;;;;;;;;;;;25.77;38.42;95167.13;5005328;28;7213;-57
2023/02/02 04:46:01;;;;;;;;;;;;;;;25.79;37.93;95172.13;5004003;28;9380;-57
2023/02/02 04:48:26;;;;;;;;;;;;;;;25.78;39.02;95170.63;5006718;28;9092;-57
2023/02/02 04:51:05;;;;;;;;;;;;;;;25.79;39.27;95166.63;5006947;28;6848;-57
2023/02/02 04:53:33;;;;;;;;;;;;;;;25.79;38.84;95161.13;5006420;28;7283;-57
2023/02/02 04:56:15;;;;;;;;;;;;;;;25.77;38.28;95156.09;4993415;28;7503;-57
2023/02/02 04:58:42;;;;;;;;;;;;;;;25.78;38.53;95154.09;4998880;28;9237;-57
2023/02/02 05:01:18;;;;;;;;;;;;;;;25.75;38.99;95150.31;5014513;28;9219;-57
2023/02/02 05:03:58;;;;;;;;;;;;;;;25.79;38.10;95159.13;5006409;28;7090;-57
2023/02/02 05:06:30;;;;;;;;;;;;;;;25.79;38.95;95161.88;5004199;28;7364;-57
2023/02/02 05:09:02;;;;;;;;;;;;;;;25.80;39.08;95159.84;5011513;28;7379;-57
2023/02/02 05:11:29;;;;;;;;;;;;;;;25.77;38.45;95152.59;4998390;28;8414;-57
2023/02/02 05:13:58;;;;;;;;;;;;;;;25.77;38.91;95152.59;5001720;28;7055;-57
2023/02/02 05:16:24;;;;;;;;;;;;;;;25.79;38.69;95147.34;4994445;28;7287;-57
2023/02/02 05:18:52;;;;;;;;;;;;;;;25.79;39.12;95150.09;4991911;28;7244;-57
2023/02/02 05:21:46;;;;;;;;;;;;;;;25.79;38.57;95150.09;4999775;28;9254;-57
2023/02/02 05:24:12;;;;;;;;;;;;;;;25.78;39.22;95148.56;5008746;28;7048;-56
2023/02/02 05:26:41;;;;;;;;;;;;;;;25.78;38.92;95148.56;5005294;28;7115;-57
2023/02/02 05:29:16;;;;;;;;;;;;;;;25.76;38.85;95143.56;5003906;28;7305;-57
2023/02/02 05:31:42;;;;;;;;;;;;;;;25.75;38.18;95139.28;4989487;28;7073;-57
2023/02/02 05:34:25;;;;;;;;;;;;;;;25.76;39.11;95149.06;4983032;28;7167;-57
2023/02/02 05:36:53;;;;;;;;;;;;;;;25.76;39.17;95157.34;5001595;28;9154;-57
2023/02/02 05:39:35;;;;;;;;;;;;;;;25.76;38.68;95154.59;5007286;28;7063;-57
2023/02/02 05:42:02;;;;;;;;;;;;;;;25.75;39.21;95149.56;5006951;28;7508;-57
2023/02/02 05:44:28;;;;;;;;;;;;;;;25.77;39.17;95150.59;4976700;28;9404;-57
2023/02/02 05:47:05;;;;;;;;;;;;;;;25.77;39.39;95147.84;4992822;28;9701;-57
2023/02/02 05:49:48;;;;;;;;;;;;;;;25.76;38.91;95151.84;4992838;28;9041;-57
2023/02/02 05:52:43;;;;;;;;;;;;;;;25.78;39.73;95151.31;4987306;28;7196;-57
2023/02/02 05:55:29;;;;;;;;;;;;;;;25.74;39.09;95146.06;4937332;28;9420;-56
2023/02/02 05:58:27;;;;;;;;;;;;;;;25.85;39.75;95151.63;4951885;28;6999;-57
2023/02/02 06:00:53;;;;;;;;;;;;;;;25.83;38.89;95150.59;4932912;28;7023;-57
2023/02/02 06:03:57;;;;;;;;;;;;;;;25.88;38.98;95161.66;4964780;28;7359;-57
2023/02/02 06:07:09;;;;;;;;;;;;;;;25.90;39.64;95166.69;4896096;29;7345;-57
2023/02/02 06:09:44;;;;;;;;;;;;;;;25.91;38.92;95157.91;4851241;29;7856;-57
2023/02/02 06:12:20;;;;;;;;;;;;;;;25.87;38.67;95157.41;4868675;29;7257;-56
2023/02/02 06:15:02;;;;;;;;;;;;;;;25.91;38.68;95157.91;4871817;29;9060;-57
2023/02/02 06:17:44;;;;;;;;;;;;;;;25.92;39.25;95153.91;4857806;29;9455;-57
2023/02/02 06:20:20;;;;;;;;;;;;;;;25.89;38.87;95154.91;4859427;29;7805;-57
2023/02/02 06:23:07;;;;;;;;;;;;;;;25.86;40.35;95155.88;4857402;29;7040;-57
2023/02/02 06:25:33;;;;;;;;;;;;;;;25.87;39.43;95154.63;4867539;29;6849;-57
2023/02/02 06:28:00;;;;;;;;;;;;;;;25.88;39.38;95158.88;4853628;29;7258;-57
2023/02/02 06:30:26;;;;;;;;;;;;;;;25.88;39.58;95153.38;4867670;29;7030;-56
2023/02/02 06:32:53;;;;;;;;;;;;;;;25.97;43.24;95155.94;4892396;29;8236;-57
2023/02/02 06:35:19;;;;;;;;;;;;;;;25.98;39.81;95157.44;4889543;29;7281;-57
2023/02/02 06:37:45;;;;;;;;;;;;;;;25.95;39.71;95163.94;4914702;28;7037;-56
2023/02/02 06:40:13;;;;;;;;;;;;;;;25.96;39.74;95165.47;4930819;28;9317;-56
2023/02/02 06:42:54;;;;;;;;;;;;;;;25.91;39.29;95168.94;4944032;28;9078;-56
2023/02/02 06:45:52;;;;;;;;;;;;;;;25.95;39.91;95172.22;4953815;28;9123;-57
2023/02/02 06:48:47;;;;;;;;;;;;;;;25.93;39.63;95177.47;5008801;28;8474;-57
2023/02/02 06:51:22;;;;;;;;;;;;;;;25.89;39.72;95174.19;4955200;28;9170;-57
2023/02/02 06:53:51;;;;;;;;;;;;;;;25.89;39.56;95182.47;4963094;28;7239;-57
2023/02/02 06:56:47;;;;;;;;;;;;;;;25.86;40.00;95188.94;4972163;28;7474;-57
2023/02/02 06:59:13;;;;;;;;;;;;;;;25.85;39.81;95187.44;4902764;29;7258;-57
2023/02/02 07:01:39;;;;;;;;;;;;;;;25.82;39.70;95185.69;4889370;29;7087;-57
2023/02/02 07:04:34;;;;;;;;;;;;;;;25.81;40.24;95184.19;4897467;29;9412;-57
2023/02/02 07:07:04;;;;;;;;;;;;;;;25.79;40.11;95191.44;4876313;29;7505;-57
2023/02/02 07:09:35;;;;;;;;;;;;;;;25.79;40.12;95194.94;4859857;29;9056;-57
2023/02/02 07:12:18;;;;;;;;;;;;;;;25.78;40.46;95187.91;4875594;29;9140;-57
2023/02/02 07:15:19;;;;;;;;;;;;;;;25.78;40.33;95201.69;4855664;29;7058;-57
2023/02/02 07:17:47;;;;;;;;;;;;;;;25.79;39.73;95197.69;4876522;29;7122;-57
2023/02/02 07:20:29;;;;;;;;;;;;;;;25.79;39.72;95192.19;4882298;29;7166;-57
2023/02/02 07:23:07;;;;;;;;;;;;;;;25.77;40.03;95200.19;4876647;29;6860;-57
2023/02/02 07:25:33;;;;;;;;;;;;;;;25.78;40.01;95196.19;4879255;29;7479;-56
2023/02/02 07:27:59;;;;;;;;;;;;;;;25.78;39.84;95203.69;4885876;29;9721;-57
2023/02/02 07:30:44;;;;;;;;;;;;;;;25.76;39.72;95206.94;4879251;29;9346;-57
2023/02/02 07:33:20;;;;;;;;;;;;;;;25.76;40.29;95198.69;4895617;29;7466;-56
2023/02/02 07:36:38;;;;;;;;;;;;;;;25.76;40.02;95203.44;4919107;29;9039;-57
2023/02/02 07:39:06;;;;;;;;;;;;;;;25.76;39.86;95195.16;4880018;29;7037;-57
2023/02/02 07:41:44;;;;;;;;;;;;;;;25.74;40.07;95195.66;4886595;29;7296;-57
2023/02/02 07:44:16;;;;;;;;;;;;;;;25.71;40.14;95199.38;4932493;28;9162;-57
2023/02/02 07:47:06;;;;;;;;;;;;;;;25.74;39.73;95206.69;4955123;28;7308;-56
2023/02/02 07:50:14;;;;;;;;;;;;;;;25.77;39.76;95196.69;4957601;28;9170;-57
2023/02/02 07:52:41;;;;;;;;;;;;;;;25.72;40.08;95184.38;4971685;28;9099;-57
2023/02/02 07:55:18;;;;;;;;;;;;;;;25.75;39.55;95191.63;4960343;28;7254;-57
2023/02/02 07:57:46;;;;;;;;;;;;;;;25.73;39.88;95202.41;4970241;28;7502;-66
2023/02/02 08:00:43;;;;;;;;;;;;;;;25.74;39.80;95209.44;4961534;28;7029;-66
2023/02/02 08:03:11;;;;;;;;;;;;;;;25.73;39.81;95201.66;4920867;28;7276;-65
2023/02/02 08:05:53;;;;;;;;;;;;;;;25.72;39.64;95181.63;4923473;28;6998;-65
2023/02/02 08:08:34;;;;;;;;;;;;;;;25.74;39.90;95192.91;4945287;28;7757;-65
2023/02/02 08:11:34;;;;;;;;;;;;;;;25.74;39.18;95203.16;4940818;28;9386;-65
2023/02/02 08:14:18;;;;;;;;;;;;;;;25.72;40.21;95217.44;4918298;29;7231;-65
2023/02/02 08:17:16;;;;;;;;;;;;;;;25.73;39.50;95224.44;4914285;29;7252;-65
2023/02/02 08:20:34;;;;;;;;;;;;;;;25.73;39.56;95229.97;4860541;29;9876;-65
2023/02/02 08:23:02;;;;;;;;;;;;;;;25.75;39.71;95235.72;4860930;29;9180;-65
2023/02/02 08:25:27;;;;;;;;;;;;;;;25.74;39.65;95236.22;4860638;29;9376;-65
2023/02/02 08:27:57;;;;;;;;;;;;;;;25.74;40.03;95250.00;4845190;29;7058;-66
2023/02/02 08:30:56;;;;;;;;;;;;;;;25.77;39.71;95251.78;4840151;29;7122;-65
2023/02/02 08:33:43;;;;;;;;;;;;;;;25.77;39.10;95243.53;4840506;29;7075;-66
2023/02/02 08:36:17;;;;;;;;;;;;;;;25.77;40.20;95247.03;4860717;29;9724;-66
2023/02/02 08:39:00;;;;;;;;;;;;;;;25.75;39.56;95243.25;4862982;29;8804;-66
2023/02/02 08:41:40;;;;;;;;;;;;;;;25.74;39.79;95250.00;4857790;29;8915;-66
2023/02/02 08:44:16;;;;;;;;;;;;;;;25.73;39.21;95252.00;4862597;29;7606;-66
2023/02/02 08:46:51;;;;;;;;;;;;;;;25.74;39.58;95250.00;4863974;29;7177;-57
2023/02/02 08:49:18;;;;;;;;;;;;;;;25.74;39.15;95253.53;4894268;28;9299;-56
2023/02/02 08:51:46;;;;;;;;;;;;;;;25.74;39.43;95259.03;4937780;28;9194;-56
2023/02/02 08:54:13;;;;;;;;;;;;;;;25.74;39.36;95261.78;4964031;28;9042;-56
2023/02/02 08:56:38;;;;;;;;;;;;;;;25.70;39.82;95261.25;5011224;28;7010;-56
2023/02/02 08:59:07;;;;;;;;;;;;;;;25.74;39.92;95261.78;5012899;28;9217;-56
2023/02/02 09:01:34;;;;;;;;;;;;;;;25.72;39.44;95258.78;5011136;28;7233;-56
2023/02/02 09:04:10;;;;;;;;;;;;;;;25.73;39.92;95257.50;5003335;28;9226;-56
2023/02/02 09:07:15;;;;;;;;;;;;;;;25.74;39.98;95270.06;5014192;28;9255;-56
2023/02/02 09:09:43;;;;;;;;;;;;;;;25.73;39.95;95267.81;4966019;28;7221;-56
2023/02/02 09:12:27;;;;;;;;;;;;;;;25.73;39.99;95260.28;4948446;28;7222;-56
2023/02/02 09:14:53;;;;;;;;;;;;;;;25.74;39.80;95267.31;4968208;28;7397;-56
2023/02/02 09:17:31;;;;;;;;;;;;;;;25.74;39.04;95261.03;4973692;28;7077;-56
2023/02/02 09:23:38;;;;;;;;;;;;;;;25.75;39.78;95260.53;4969258;28;9219;-56
2023/02/02 09:26:12;;;;;;;;;;;;;;;25.73;39.66;95246.50;4972292;28;7913;-56
2023/02/02 09:28:44;;;;;;;;;;;;;;;25.73;39.90;95252.00;4957901;28;9063;-66
2023/02/02 09:31:24;;;;;;;;;;;;;;;25.67;39.48;95253.97;4940393;28;7015;-66
2023/02/02 09:34:11;;;;;;;;;;;;;;;25.71;39.63;95260.00;4947624;28;7242;-66
2023/02/02 09:36:48;;;;;;;;;;;;;;;25.72;39.50;95261.53;4967342;28;7328;-66
2023/02/02 09:39:24;;;;;;;;;;;;;;;25.74;39.56;95263.78;4969691;28;7143;-66
2023/02/02 09:42:04;;;;;;;;;;;;;;;25.74;39.91;95261.78;4996272;28;7300;-66
2023/02/02 09:44:58;;;;;;;;;;;;;;;25.74;39.75;95272.06;4999191;28;7032;-66
2023/02/02 09:47:52;;;;;;;;;;;;;;;25.74;39.10;95267.31;5011867;28;7415;-66
2023/02/02 09:50:48;;;;;;;;;;;;;;;25.73;39.65;95282.31;5001358;28;9429;-66
2023/02/02 09:53:22;;;;;;;;;;;;;;;25.72;39.10;95282.81;5019322;28;7394;-66
2023/02/02 09:56:11;;;;;;;;;;;;;;;25.73;39.35;95284.34;4995523;28;8161;-66
2023/02/02 09:58:52;;;;;;;;;;;;;;;25.73;38.59;95267.81;4996812;28;7087;-66
2023/02/02 10:01:26;;;;;;;;;;;;;;;25.75;39.15;95277.06;4999874;28;7203;-66
2023/02/02 10:04:04;;;;;;;;;;;;;;;25.76;38.50;95283.34;4991099;28;7040;-66
2023/02/02 10:06:35;;;;;;;;;;;;;;;25.76;39.19;95302.63;5003990;28;9296;-67
2023/02/02 10:09:25;;;;;;;;;;;;;;;25.75;39.18;95303.88;4998884;28;8793;-66
2023/02/02 10:12:00;;;;;;;;;;;;;;;25.75;38.70;95309.41;4993455;28;7137;-66
2023/02/02 10:14:32;;;;;;;;;;;;;;;25.74;39.56;95319.66;5009200;28;9042;-66
2023/02/02 10:17:21;;;;;;;;;;;;;;;25.69;39.60;95323.13;4997469;28;9394;-66
2023/02/02 10:20:01;;;;;;;;;;;;;;;25.76;39.07;95346.72;5005558;28;9131;-66
2023/02/02 10:22:32;;;;;;;;;;;;;;;25.71;39.11;95350.19;4994710;28;7100;-66
2023/02/02 10:24:58;;;;;;;;;;;;;;;25.72;38.94;95359.97;4994881;28;7208;-67
2023/02/02 10:27:37;;;;;;;;;;;;;;;25.74;38.81;95360.22;5008925;28;9625;-66
2023/02/02 10:30:17;;;;;;;;;;;;;;;25.75;38.93;95353.50;4999094;28;7430;-66
2023/02/02 10:33:05;;;;;;;;;;;;;;;25.73;39.29;95362.22;5007601;28;7028;-66
2023/02/02 10:35:55;;;;;;;;;;;;;;;25.74;39.04;95362.97;5001560;28;8963;-66
2023/02/02 10:38:37;;;;;;;;;;;;;;;25.72;39.46;95362.72;5009134;28;7213;-66
2023/02/02 10:41:32;;;;;;;;;;;;;;;25.74;39.38;95355.47;5011983;28;7211;-66
2023/02/02 10:44:12;;;;;;;;;;;;;;;25.77;38.62;95359.25;4993939;28;9155;-67
2023/02/02 10:46:56;;;;;;;;;;;;;;;25.80;38.21;95361.78;4994072;28;6867;-67
2023/02/02 10:49:31;;;;;;;;;;;;;;;25.79;39.05;95354.78;4999034;28;9164;-67
2023/02/02 10:52:17;;;;;;;;;;;;;;;25.75;39.11;95351.47;5013080;28;7214;-66
2023/02/02 10:58:45;;;;;;;;;;;;;;;25.76;39.17;95364.00;4971890;28;8761;-66
2023/02/02 11:01:36;;;;;;;;;;;;;;;25.76;39.30;95361.25;4967700;28;9013;-66
2023/02/02 11:07:19;;;;;;;;;;;;;;;25.77;38.41;95368.28;4966469;28;7202;-66
2023/02/02 11:10:03;;;;;;;;;;;;;;;25.78;38.93;95363.50;4959043;28;8346;-67
2023/02/02 11:13:04;;;;;;;;;;;;;;;25.78;39.15;95360.75;4950643;28;9212;-67
2023/02/02 11:15:45;;;;;;;;;;;;;;;25.78;38.64;95356.00;4953202;28;7207;-67
2023/02/02 11:18:30;;;;;;;;;;;;;;;25.80;38.60;95364.53;4952160;28;9016;-67
2023/02/02 11:21:39;;;;;;;;;;;;;;;25.78;38.19;95358.00;4948637;28;7205;-67
2023/02/02 11:24:26;;;;;;;;;;;;;;;25.78;38.77;95356.00;4941385;28;7058;-66
2023/02/02 11:26:56;;;;;;;;;;;;;;;25.76;38.51;95350.22;4945773;28;7261;-66
2023/02/02 11:29:31;;;;;;;;;;;;;;;25.76;38.36;95350.22;4944620;28;8631;-66
2023/02/02 11:32:16;;;;;;;;;;;;;;;25.75;38.84;95340.44;4944154;28;7361;-68
2023/02/02 11:34:44;;;;;;;;;;;;;;;25.78;39.72;95331.22;4982943;28;9028;-67
2023/02/02 11:37:20;;;;;;;;;;;;;;;25.81;38.48;95326.72;4985374;28;7137;-67
2023/02/02 11:40:22;;;;;;;;;;;;;;;25.80;39.21;95322.44;4998668;28;7027;-67
2023/02/02 11:42:54;;;;;;;;;;;;;;;25.79;39.17;95309.94;4998047;28;9228;-67
2023/02/02 11:45:36;;;;;;;;;;;;;;;25.79;39.32;95301.66;5011835;28;7765;-67
2023/02/02 11:48:17;;;;;;;;;;;;;;;25.79;38.72;95299.66;4999380;28;8673;-68
2023/02/02 11:50:53;;;;;;;;;;;;;;;25.80;38.88;95300.41;5009022;28;7238;-67
2023/02/02 11:53:47;;;;;;;;;;;;;;;25.82;38.78;95293.16;4994124;28;8976;-68
2023/02/02 11:56:25;;;;;;;;;;;;;;;25.81;39.12;95293.66;4992509;28;9098;-68
2023/02/02 11:58:55;;;;;;;;;;;;;;;25.84;38.32;95293.41;5007600;28;7315;-68
2023/02/02 12:01:34;;;;;;;;;;;;;;;25.83;39.25;95294.69;4991475;28;8029;-65
2023/02/02 12:04:22;;;;;;;;;;;;;;;25.84;38.68;95290.66;5011525;28;7275;-65
2023/02/02 12:06:49;;;;;;;;;;;;;;;25.81;39.00;95286.16;4996127;28;8713;-65
2023/02/02 12:09:24;;;;;;;;;;;;;;;25.87;39.11;95294.44;4993336;28;9159;-66
2023/02/02 12:12:01;;;;;;;;;;;;;;;25.88;39.21;95301.47;4996143;28;9327;-66
2023/02/02 12:15:12;;;;;;;;;;;;;;;25.92;39.42;95288.97;5001629;28;7096;-66
2023/02/02 12:17:46;;;;;;;;;;;;;;;25.97;38.25;95295.75;4998080;28;7268;-66
2023/02/02 12:20:18;;;;;;;;;;;;;;;25.94;38.11;95300.25;5002327;28;8629;-66
2023/02/02 12:23:10;;;;;;;;;;;;;;;25.92;39.00;95293.72;4995422;28;7265;-66
2023/02/02 12:26:08;;;;;;;;;;;;;;;25.94;38.41;95292.00;4989648;28;9385;-66
2023/02/02 12:28:45;;;;;;;;;;;;;;;25.93;38.00;95281.44;4993066;28;9430;-67
2023/02/02 12:31:21;;;;;;;;;;;;;;;25.99;38.83;95285.00;4997985;28;8636;-66
2023/02/02 12:34:19;;;;;;;;;;;;;;;26.02;38.88;95284.00;5000511;28;7439;-65
2023/02/02 12:36:59;;;;;;;;;;;;;;;26.04;38.51;95287.78;5014579;28;7053;-67
2023/02/02 12:43:33;;;;;;;;;;;;;;;26.08;37.31;95277.31;5004509;28;9092;-67
2023/02/02 12:46:30;;;;;;;;;;;;;;;26.10;36.79;95271.28;5012632;28;9031;-67
2023/02/02 12:49:05;;;;;;;;;;;;;;;26.09;36.67;95289.09;5007472;28;9005;-67
2023/02/02 12:52:18;;;;;;;;;;;;;;;26.04;36.54;95276.75;5004847;28;9061;-68
2023/02/02 12:55:24;;;;;;;;;;;;;;;25.99;36.83;95258.19;5016256;28;9014;-57
2023/02/02 12:57:59;;;;;;;;;;;;;;;25.98;36.54;95267.72;5014877;28;9392;-57
2023/02/02 13:01:03;;;;;;;;;;;;;;;25.96;36.73;95264.69;5011937;28;8747;-57
2023/02/02 13:03:56;;;;;;;;;;;;;;;25.95;36.52;95282.47;5022627;28;7334;-57
2023/02/02 13:10:21;;;;;;;;;;;;;;;25.92;37.08;95266.94;5003988;28;6780;-57
2023/02/02 13:13:14;;;;;;;;;;;;;;;25.93;36.71;95265.66;5008443;28;9002;-57
2023/02/02 13:15:55;;;;;;;;;;;;;;;25.90;37.51;95260.41;5012275;28;8126;-57
2023/02/02 13:19:03;;;;;;;;;;;;;;;25.92;37.22;95269.69;5008545;28;7305;-57
2023/02/02 13:21:52;;;;;;;;;;;;;;;25.92;37.32;95272.44;4998568;28;9090;-57
2023/02/02 13:24:29;;;;;;;;;;;;;;;25.91;37.58;95267.41;5002456;28;9943;-57
2023/02/02 13:26:59;;;;;;;;;;;;;;;25.91;36.84;95278.44;4998456;28;9058;-57
2023/02/02 13:29:45;;;;;;;;;;;;;;;25.92;37.03;95275.19;4996588;28;8293;-56
2023/02/02 13:32:48;;;;;;;;;;;;;;;25.95;36.97;95279.72;4998465;28;9470;-65
2023/02/02 13:35:36;;;;;;;;;;;;;;;25.94;37.02;95283.72;4967055;28;7551;-65
2023/02/02 13:38:40;;;;;;;;;;;;;;;25.93;36.63;95276.69;4956214;28;9532;-66
2023/02/02 13:41:17;;;;;;;;;;;;;;;25.94;36.57;95280.22;4949504;28;9024;-67
2023/02/02 13:44:07;;;;;;;;;;;;;;;25.92;36.83;95268.91;4964971;28;7222;-66
2023/02/02 13:47:13;;;;;;;;;;;;;;;25.92;37.42;95268.91;4951492;28;8880;-66
2023/02/02 13:50:06;;;;;;;;;;;;;;;25.89;36.83;95272.66;4948305;28;7200;-66
2023/02/02 13:53:33;;;;;;;;;;;;;;;25.87;37.13;95284.19;4952336;28;9011;-65
2023/02/02 13:59:59;;;;;;;;;;;;;;;25.85;37.83;95280.41;4875841;29;7213;-65
2023/02/02 14:02:44;;;;;;;;;;;;;;;25.83;38.09;95289.16;4861195;29;7321;-66
2023/02/02 14:06:05;;;;;;;;;;;;;;;25.84;38.02;95295.41;4861105;29;6865;-66
2023/02/02 14:09:00;;;;;;;;;;;;;;;25.83;37.38;95291.16;4800739;29;9189;-65
2023/02/02 14:11:31;;;;;;;;;;;;;;;25.79;37.37;95288.63;4841216;29;7257;-66
2023/02/02 14:14:31;;;;;;;;;;;;;;;25.82;37.75;95284.13;4852427;29;7245;-66
2023/02/02 14:17:24;;;;;;;;;;;;;;;25.80;37.42;95295.66;4854498;29;9068;-66
2023/02/02 14:19:53;;;;;;;;;;;;;;;25.80;37.86;95301.16;4815001;29;7273;-66
2023/02/02 14:22:43;;;;;;;;;;;;;;;25.82;37.46;95314.44;4816932;29;7020;-66
2023/02/02 14:25:35;;;;;;;;;;;;;;;25.85;37.44;95319.75;4801045;29;8962;-66
2023/02/02 14:28:08;;;;;;;;;;;;;;;25.84;37.08;95312.72;4806159;29;8830;-66
2023/02/02 14:30:40;;;;;;;;;;;;;;;25.83;37.58;95315.97;4803147;29;9043;-66
2023/02/02 14:33:23;;;;;;;;;;;;;;;25.81;37.34;95319.22;4862693;29;7834;-66